sensor_id;sensor_type;location;lat;lon;timestamp;pressure;altitude;pressure_sealevel;temperature;humidity
22688;BME280;11511;51.514;7.080;2024-03-17T00:00:34;101867.03;;;4.36;100.00
22688;BME280;11511;51.514;7.080;2024-03-17T00:03:00;101868.69;;;4.29;100.00
22688;BME280;11511;51.514;7.080;2024-03-17T00:05:25;101867.00;;;4.33;100.00
22688;BME280;11511;51.514;7.080;2024-03-17T00:07:51;101863.56;;;4.40;100.00
22688;BME280;11511;51.514;7.080;2024-03-17T00:10:16;101860.03;;;4.32;100.00
22688;BME280;11511;51.514;7.080;2024-03-17T00:12:41;101854.72;;;4.23;100.00
22688;BME280;11511;51.514;7.080;2024-03-17T00:15:08;101858.97;;;4.13;100.00
22688;BME280;11511;51.514;7.080;2024-03-17T00:17:33;101853.72;;;4.08;100.00
22688;BME280;11511;51.514;7.080;2024-03-17T00:20:00;101859.75;;;4.03;100.00
22688;BME280;11511;51.514;7.080;2024-03-17T00:22:29;101855.34;;;3.97;100.00
22688;BME280;11511;51.514;7.080;2024-03-17T00:24:55;101849.22;;;3.94;100.00
22688;BME280;11511;51.514;7.080;2024-03-17T00:27:20;101857.06;;;3.95;100.00
22688;BME280;11511;51.514;7.080;2024-03-17T00:29:46;101847.50;;;3.97;100.00
22688;BME280;11511;51.514;7.080;2024-03-17T00:32:11;101853.47;;;3.86;100.00
22688;BME280;11511;51.514;7.080;2024-03-17T00:34:37;101849.09;;;3.80;100.00
22688;BME280;11511;51.514;7.080;2024-03-17T00:37:02;101846.38;;;3.72;100.00
22688;BME280;11511;51.514;7.080;2024-03-17T00:39:28;101841.09;;;3.66;100.00
22688;BME280;11511;51.514;7.080;2024-03-17T00:41:53;101846.16;;;3.56;100.00
22688;BME280;11511;51.514;7.080;2024-03-17T00:44:19;101841.84;;;3.55;100.00
22688;BME280;11511;51.514;7.080;2024-03-17T00:46:44;101834.75;;;3.43;100.00
22688;BME280;11511;51.514;7.080;2024-03-17T00:49:10;101829.41;;;3.32;100.00
22688;BME280;11511;51.514;7.080;2024-03-17T00:51:38;101827.63;;;3.30;100.00
22688;BME280;11511;51.514;7.080;2024-03-17T00:54:03;101827.66;;;3.31;100.00
22688;BME280;11511;51.514;7.080;2024-03-17T00:56:29;101823.28;;;3.27;100.00
22688;BME280;11511;51.514;7.080;2024-03-17T00:58:54;101818.09;;;3.32;100.00
22688;BME280;11511;51.514;7.080;2024-03-17T01:01:19;101813.81;;;3.35;100.00
22688;BME280;11511;51.514;7.080;2024-03-17T01:03:45;101810.16;;;3.20;100.00
22688;BME280;11511;51.514;7.080;2024-03-17T01:06:11;101807.66;;;3.27;100.00
22688;BME280;11511;51.514;7.080;2024-03-17T01:08:36;101807.56;;;3.21;100.00
22688;BME280;11511;51.514;7.080;2024-03-17T01:11:02;101822.09;;;3.05;100.00
22688;BME280;11511;51.514;7.080;2024-03-17T01:13:28;101808.16;;;3.02;100.00
22688;BME280;11511;51.514;7.080;2024-03-17T01:15:54;101818.53;;;2.97;100.00
22688;BME280;11511;51.514;7.080;2024-03-17T01:18:19;101808.06;;;2.93;100.00
22688;BME280;11511;51.514;7.080;2024-03-17T01:20:45;101804.47;;;2.85;100.00
22688;BME280;11511;51.514;7.080;2024-03-17T01:23:11;101803.50;;;2.78;100.00
22688;BME280;11511;51.514;7.080;2024-03-17T01:25:36;101807.16;;;2.91;100.00
22688;BME280;11511;51.514;7.080;2024-03-17T01:28:04;101801.91;;;2.86;100.00
22688;BME280;11511;51.514;7.080;2024-03-17T01:30:31;101801.75;;;2.77;100.00
22688;BME280;11511;51.514;7.080;2024-03-17T01:32:57;101793.91;;;2.74;100.00
22688;BME280;11511;51.514;7.080;2024-03-17T01:35:25;101799.06;;;2.69;100.00
22688;BME280;11511;51.514;7.080;2024-03-17T01:37:50;101794.75;;;2.70;100.00
22688;BME280;11511;51.514;7.080;2024-03-17T01:40:16;101791.16;;;2.62;100.00
22688;BME280;11511;51.514;7.080;2024-03-17T01:42:41;101793.69;;;2.59;100.00
22688;BME280;11511;51.514;7.080;2024-03-17T01:45:26;101800.53;;;2.52;100.00
22688;BME280;11511;51.514;7.080;2024-03-17T01:47:53;101799.69;;;2.55;100.00
22688;BME280;11511;51.514;7.080;2024-03-17T01:50:18;101794.44;;;2.52;100.00
22688;BME280;11511;51.514;7.080;2024-03-17T01:52:53;101792.66;;;2.49;100.00
22688;BME280;11511;51.514;7.080;2024-03-17T01:55:19;101791.75;;;2.44;100.00
22688;BME280;11511;51.514;7.080;2024-03-17T01:57:45;101787.25;;;2.34;100.00
22688;BME280;11511;51.514;7.080;2024-03-17T02:00:11;101784.75;;;2.40;100.00
22688;BME280;11511;51.514;7.080;2024-03-17T02:02:37;101789.88;;;2.35;100.00
22688;BME280;11511;51.514;7.080;2024-03-17T02:05:03;101781.31;;;2.43;100.00
22688;BME280;11511;51.514;7.080;2024-03-17T02:07:28;101783.09;;;2.45;100.00
22688;BME280;11511;51.514;7.080;2024-03-17T02:09:58;101781.97;;;2.29;100.00
22688;BME280;11511;51.514;7.080;2024-03-17T02:12:24;101789.78;;;2.31;100.00
22688;BME280;11511;51.514;7.080;2024-03-17T02:14:49;101777.69;;;2.33;100.00
22688;BME280;11511;51.514;7.080;2024-03-17T02:17:15;101784.69;;;2.35;100.00
22688;BME280;11511;51.514;7.080;2024-03-17T02:19:40;101771.59;;;2.31;100.00
22688;BME280;11511;51.514;7.080;2024-03-17T02:22:15;101771.78;;;2.42;100.00
22688;BME280;11511;51.514;7.080;2024-03-17T02:24:42;101770.91;;;2.41;100.00
22688;BME280;11511;51.514;7.080;2024-03-17T02:27:08;101777.69;;;2.33;100.00
22688;BME280;11511;51.514;7.080;2024-03-17T02:29:34;101770.00;;;2.39;100.00
22688;BME280;11511;51.514;7.080;2024-03-17T02:32:05;101776.06;;;2.38;100.00
22688;BME280;11511;51.514;7.080;2024-03-17T02:34:35;101761.19;;;2.31;100.00
22688;BME280;11511;51.514;7.080;2024-03-17T02:37:04;101767.75;;;2.08;100.00
22688;BME280;11511;51.514;7.080;2024-03-17T02:39:31;101767.78;;;2.09;100.00
22688;BME280;11511;51.514;7.080;2024-03-17T02:42:09;101766.97;;;2.12;100.00
22688;BME280;11511;51.514;7.080;2024-03-17T02:44:35;101762.38;;;2.53;100.00
22688;BME280;11511;51.514;7.080;2024-03-17T02:47:02;101759.19;;;2.70;100.00
22688;BME280;11511;51.514;7.080;2024-03-17T02:49:29;101758.09;;;2.56;100.00
22688;BME280;11511;51.514;7.080;2024-03-17T02:52:15;101758.84;;;2.48;100.00
22688;BME280;11511;51.514;7.080;2024-03-17T02:54:41;101755.59;;;2.62;100.00
22688;BME280;11511;51.514;7.080;2024-03-17T02:57:07;101759.81;;;2.54;100.00
22688;BME280;11511;51.514;7.080;2024-03-17T02:59:36;101751.03;;;2.46;100.00
22688;BME280;11511;51.514;7.080;2024-03-17T03:02:02;101753.06;;;2.65;100.00
22688;BME280;11511;51.514;7.080;2024-03-17T03:04:27;101744.44;;;2.69;100.00
22688;BME280;11511;51.514;7.080;2024-03-17T03:06:53;101740.53;;;3.05;100.00
22688;BME280;11511;51.514;7.080;2024-03-17T03:09:18;101726.75;;;3.12;100.00
22688;BME280;11511;51.514;7.080;2024-03-17T03:11:50;101743.84;;;2.90;100.00
22688;BME280;11511;51.514;7.080;2024-03-17T03:14:17;101742.03;;;2.85;100.00
22688;BME280;11511;51.514;7.080;2024-03-17T03:16:42;101746.44;;;2.89;100.00
22688;BME280;11511;51.514;7.080;2024-03-17T03:19:07;101746.81;;;2.54;100.00
22688;BME280;11511;51.514;7.080;2024-03-17T03:21:33;101746.06;;;2.61;100.00
22688;BME280;11511;51.514;7.080;2024-03-17T03:23:58;101755.56;;;2.59;100.00
22688;BME280;11511;51.514;7.080;2024-03-17T03:26:24;101744.06;;;2.42;100.00
22688;BME280;11511;51.514;7.080;2024-03-17T03:28:50;101752.63;;;2.36;100.00
22688;BME280;11511;51.514;7.080;2024-03-17T03:31:16;101759.00;;;2.58;100.00
22688;BME280;11511;51.514;7.080;2024-03-17T03:33:43;101753.84;;;2.60;100.00
22688;BME280;11511;51.514;7.080;2024-03-17T03:36:09;101746.69;;;2.47;100.00
22688;BME280;11511;51.514;7.080;2024-03-17T03:38:35;101751.13;;;2.54;100.00
22688;BME280;11511;51.514;7.080;2024-03-17T03:41:13;101744.56;;;2.80;100.00
22688;BME280;11511;51.514;7.080;2024-03-17T03:43:39;101746.06;;;2.61;100.00
22688;BME280;11511;51.514;7.080;2024-03-17T03:46:04;101748.94;;;2.83;100.00
22688;BME280;11511;51.514;7.080;2024-03-17T03:48:30;101754.03;;;2.72;100.00
22688;BME280;11511;51.514;7.080;2024-03-17T03:50:55;101754.81;;;2.66;100.00
22688;BME280;11511;51.514;7.080;2024-03-17T03:53:21;101759.03;;;2.60;100.00
22688;BME280;11511;51.514;7.080;2024-03-17T03:55:47;101765.03;;;2.56;100.00
22688;BME280;11511;51.514;7.080;2024-03-17T03:58:14;101741.84;;;2.69;100.00
22688;BME280;11511;51.514;7.080;2024-03-17T04:00:39;101746.28;;;2.80;100.00
22688;BME280;11511;51.514;7.080;2024-03-17T04:03:05;101748.59;;;2.58;100.00
22688;BME280;11511;51.514;7.080;2024-03-17T04:05:30;101741.44;;;2.42;100.00
22688;BME280;11511;51.514;7.080;2024-03-17T04:07:56;101748.28;;;2.35;100.00
22688;BME280;11511;51.514;7.080;2024-03-17T04:10:22;101743.06;;;2.34;100.00
22688;BME280;11511;51.514;7.080;2024-03-17T04:12:49;101742.22;;;2.36;100.00
22688;BME280;11511;51.514;7.080;2024-03-17T04:15:14;101748.59;;;2.58;100.00
22688;BME280;11511;51.514;7.080;2024-03-17T04:17:40;101748.72;;;2.66;100.00
22688;BME280;11511;51.514;7.080;2024-03-17T04:20:06;101745.25;;;2.65;100.00
22688;BME280;11511;51.514;7.080;2024-03-17T04:22:42;101740.06;;;2.67;100.00
22688;BME280;11511;51.514;7.080;2024-03-17T04:25:11;101735.88;;;2.78;100.00
22688;BME280;11511;51.514;7.080;2024-03-17T04:27:37;101738.72;;;2.96;100.00
22688;BME280;11511;51.514;7.080;2024-03-17T04:30:03;101737.47;;;3.39;100.00
22688;BME280;11511;51.514;7.080;2024-03-17T04:32:31;101735.56;;;3.23;100.00
22688;BME280;11511;51.514;7.080;2024-03-17T04:34:57;101737.09;;;3.06;100.00
22688;BME280;11511;51.514;7.080;2024-03-17T04:37:22;101729.44;;;3.18;100.00
22688;BME280;11511;51.514;7.080;2024-03-17T04:39:48;101735.47;;;3.16;100.00
22688;BME280;11511;51.514;7.080;2024-03-17T04:42:14;101729.22;;;3.01;100.00
22688;BME280;11511;51.514;7.080;2024-03-17T04:44:40;101727.50;;;3.02;100.00
22688;BME280;11511;51.514;7.080;2024-03-17T04:47:06;101724.00;;;3.01;100.00
22688;BME280;11511;51.514;7.080;2024-03-17T04:49:50;101719.66;;;2.97;100.00
22688;BME280;11511;51.514;7.080;2024-03-17T04:52:15;101711.84;;;2.97;100.00
22688;BME280;11511;51.514;7.080;2024-03-17T04:54:41;101706.56;;;2.91;100.00
22688;BME280;11511;51.514;7.080;2024-03-17T04:57:08;101712.63;;;2.92;100.00
22688;BME280;11511;51.514;7.080;2024-03-17T04:59:34;101701.69;;;3.20;100.00
22688;BME280;11511;51.514;7.080;2024-03-17T05:02:00;101703.91;;;2.88;100.00
22688;BME280;11511;51.514;7.080;2024-03-17T05:04:25;101704.91;;;3.01;100.00
22688;BME280;11511;51.514;7.080;2024-03-17T05:06:51;101706.34;;;2.73;100.00
22688;BME280;11511;51.514;7.080;2024-03-17T05:09:16;101700.19;;;2.68;100.00
22688;BME280;11511;51.514;7.080;2024-03-17T05:11:42;101702.69;;;2.60;100.00
22688;BME280;11511;51.514;7.080;2024-03-17T05:14:07;101709.81;;;2.77;100.00
22688;BME280;11511;51.514;7.080;2024-03-17T05:16:33;101713.06;;;2.59;100.00
22688;BME280;11511;51.514;7.080;2024-03-17T05:18:58;101716.75;;;2.76;100.00
22688;BME280;11511;51.514;7.080;2024-03-17T05:21:24;101712.03;;;2.48;100.00
22688;BME280;11511;51.514;7.080;2024-03-17T05:23:51;101713.69;;;2.40;100.00
22688;BME280;11511;51.514;7.080;2024-03-17T05:26:16;101709.22;;;2.32;100.00
22688;BME280;11511;51.514;7.080;2024-03-17T05:28:42;101701.66;;;2.49;100.00
22688;BME280;11511;51.514;7.080;2024-03-17T05:31:08;101709.44;;;2.46;100.00
22688;BME280;11511;51.514;7.080;2024-03-17T05:33:34;101705.09;;;2.48;100.00
22688;BME280;11511;51.514;7.080;2024-03-17T05:36:00;101697.66;;;2.72;100.00
22688;BME280;11511;51.514;7.080;2024-03-17T05:38:27;101691.31;;;3.23;100.00
22688;BME280;11511;51.514;7.080;2024-03-17T05:40:57;101688.59;;;3.14;100.00
22688;BME280;11511;51.514;7.080;2024-03-17T05:43:25;101695.66;;;3.24;100.00
22688;BME280;11511;51.514;7.080;2024-03-17T05:45:56;101692.41;;;3.47;100.00
22688;BME280;11511;51.514;7.080;2024-03-17T05:48:21;101694.16;;;3.48;100.00
22688;BME280;11511;51.514;7.080;2024-03-17T05:50:47;101690.06;;;3.74;100.00
22688;BME280;11511;51.514;7.080;2024-03-17T05:53:12;101689.91;;;3.60;100.00
22688;BME280;11511;51.514;7.080;2024-03-17T05:55:38;101703.88;;;3.67;100.00
22688;BME280;11511;51.514;7.080;2024-03-17T05:58:06;101702.16;;;3.69;100.00
22688;BME280;11511;51.514;7.080;2024-03-17T06:00:34;101699.59;;;3.72;100.00
22688;BME280;11511;51.514;7.080;2024-03-17T06:02:59;101704.91;;;3.83;100.00
22688;BME280;11511;51.514;7.080;2024-03-17T06:05:25;101702.22;;;3.73;100.00
22688;BME280;11511;51.514;7.080;2024-03-17T06:07:50;101698.97;;;4.00;100.00
22688;BME280;11511;51.514;7.080;2024-03-17T06:10:15;101697.19;;;3.96;100.00
22688;BME280;11511;51.514;7.080;2024-03-17T06:12:41;101700.91;;;4.30;100.00
22688;BME280;11511;51.514;7.080;2024-03-17T06:15:06;101690.41;;;4.21;100.00
22688;BME280;11511;51.514;7.080;2024-03-17T06:17:32;101694.81;;;4.27;100.00
22688;BME280;11511;51.514;7.080;2024-03-17T06:19:57;101686.16;;;4.38;100.00
22688;BME280;11511;51.514;7.080;2024-03-17T06:22:23;101688.84;;;4.48;100.00
22688;BME280;11511;51.514;7.080;2024-03-17T06:24:48;101686.22;;;4.48;100.00
22688;BME280;11511;51.514;7.080;2024-03-17T06:27:14;101687.09;;;4.50;100.00
22688;BME280;11511;51.514;7.080;2024-03-17T06:29:39;101683.66;;;4.52;100.00
22688;BME280;11511;51.514;7.080;2024-03-17T06:32:05;101682.88;;;4.73;100.00
22688;BME280;11511;51.514;7.080;2024-03-17T06:34:30;101673.34;;;4.81;100.00
22688;BME280;11511;51.514;7.080;2024-03-17T06:36:56;101678.63;;;4.92;100.00
22688;BME280;11511;51.514;7.080;2024-03-17T06:39:21;101678.63;;;4.98;100.00
22688;BME280;11511;51.514;7.080;2024-03-17T06:41:47;101680.34;;;4.96;100.00
22688;BME280;11511;51.514;7.080;2024-03-17T06:44:12;101677.75;;;5.02;100.00
22688;BME280;11511;51.514;7.080;2024-03-17T06:46:37;101680.41;;;5.09;100.00
22688;BME280;11511;51.514;7.080;2024-03-17T06:49:02;101672.59;;;5.25;100.00
22688;BME280;11511;51.514;7.080;2024-03-17T06:51:28;101683.09;;;5.55;100.00
22688;BME280;11511;51.514;7.080;2024-03-17T06:53:53;101673.53;;;5.66;100.00
22688;BME280;11511;51.514;7.080;2024-03-17T06:56:19;101670.06;;;5.70;100.00
22688;BME280;11511;51.514;7.080;2024-03-17T06:58:44;101668.34;;;5.89;100.00
22688;BME280;11511;51.514;7.080;2024-03-17T07:01:09;101659.59;;;6.04;100.00
22688;BME280;11511;51.514;7.080;2024-03-17T07:03:34;101649.94;;;6.30;100.00
22688;BME280;11511;51.514;7.080;2024-03-17T07:06:00;101641.19;;;6.51;100.00
22688;BME280;11511;51.514;7.080;2024-03-17T07:08:30;101647.28;;;6.52;100.00
22688;BME280;11511;51.514;7.080;2024-03-17T07:13:20;101635.72;;;6.98;100.00
22688;BME280;11511;51.514;7.080;2024-03-17T07:15:49;101636.41;;;7.29;100.00
22688;BME280;11511;51.514;7.080;2024-03-17T07:18:14;101640.75;;;7.36;100.00
22688;BME280;11511;51.514;7.080;2024-03-17T07:20:40;101639.72;;;7.56;100.00
22688;BME280;11511;51.514;7.080;2024-03-17T07:23:05;101642.97;;;7.84;100.00
22688;BME280;11511;51.514;7.080;2024-03-17T07:25:30;101657.88;;;7.80;100.00
22688;BME280;11511;51.514;7.080;2024-03-17T07:27:55;101658.41;;;8.17;100.00
22688;BME280;11511;51.514;7.080;2024-03-17T07:30:21;101651.00;;;8.56;100.00
22688;BME280;11511;51.514;7.080;2024-03-17T07:32:46;101656.03;;;9.38;100.00
22688;BME280;11511;51.514;7.080;2024-03-17T07:35:12;101666.50;;;9.95;100.00
22688;BME280;11511;51.514;7.080;2024-03-17T07:37:37;101658.94;;;9.77;100.00
22688;BME280;11511;51.514;7.080;2024-03-17T07:40:04;101663.75;;;10.03;100.00
22688;BME280;11511;51.514;7.080;2024-03-17T07:42:31;101663.09;;;9.90;100.00
22688;BME280;11511;51.514;7.080;2024-03-17T07:44:57;101669.91;;;10.03;100.00
22688;BME280;11511;51.514;7.080;2024-03-17T07:47:22;101670.19;;;9.85;100.00
22688;BME280;11511;51.514;7.080;2024-03-17T07:49:48;101664.38;;;10.15;100.00
22688;BME280;11511;51.514;7.080;2024-03-17T07:52:13;101661.38;;;9.88;100.00
22688;BME280;11511;51.514;7.080;2024-03-17T07:54:38;101664.09;;;9.83;100.00
22688;BME280;11511;51.514;7.080;2024-03-17T07:57:03;101664.66;;;10.02;100.00
22688;BME280;11511;51.514;7.080;2024-03-17T07:59:29;101660.88;;;10.16;100.00
22688;BME280;11511;51.514;7.080;2024-03-17T08:01:55;101663.56;;;10.61;100.00
22688;BME280;11511;51.514;7.080;2024-03-17T08:04:21;101666.50;;;10.89;100.00
22688;BME280;11511;51.514;7.080;2024-03-17T08:06:46;101663.81;;;10.92;100.00
22688;BME280;11511;51.514;7.080;2024-03-17T08:09:12;101663.25;;;11.18;100.00
22688;BME280;11511;51.514;7.080;2024-03-17T08:11:37;101670.63;;;10.61;100.00
22688;BME280;11511;51.514;7.080;2024-03-17T08:14:03;101676.56;;;11.12;100.00
22688;BME280;11511;51.514;7.080;2024-03-17T08:16:29;101674.00;;;11.47;100.00
22688;BME280;11511;51.514;7.080;2024-03-17T08:18:55;101675.19;;;11.34;100.00
22688;BME280;11511;51.514;7.080;2024-03-17T08:21:20;101677.44;;;11.49;100.00
22688;BME280;11511;51.514;7.080;2024-03-17T08:23:46;101673.41;;;11.35;100.00
22688;BME280;11511;51.514;7.080;2024-03-17T08:26:12;101667.28;;;11.71;100.00
22688;BME280;11511;51.514;7.080;2024-03-17T08:28:38;101662.47;;;11.89;100.00
22688;BME280;11511;51.514;7.080;2024-03-17T08:31:03;101673.63;;;12.32;100.00
22688;BME280;11511;51.514;7.080;2024-03-17T08:33:29;101682.44;;;12.33;100.00
22688;BME280;11511;51.514;7.080;2024-03-17T08:35:59;101679.78;;;12.33;100.00
22688;BME280;11511;51.514;7.080;2024-03-17T08:38:25;101683.97;;;12.07;100.00
22688;BME280;11511;51.514;7.080;2024-03-17T08:40:51;101673.56;;;12.03;100.00
22688;BME280;11511;51.514;7.080;2024-03-17T08:43:17;101665.50;;;12.07;100.00
22688;BME280;11511;51.514;7.080;2024-03-17T08:45:42;101671.66;;;12.40;100.00
22688;BME280;11511;51.514;7.080;2024-03-17T08:48:08;101668.81;;;12.15;100.00
22688;BME280;11511;51.514;7.080;2024-03-17T08:50:35;101672.34;;;12.14;100.00
22688;BME280;11511;51.514;7.080;2024-03-17T08:53:00;101669.97;;;12.38;100.00
22688;BME280;11511;51.514;7.080;2024-03-17T08:55:26;101671.38;;;13.41;100.00
22688;BME280;11511;51.514;7.080;2024-03-17T08:57:51;101672.66;;;12.98;100.00
22688;BME280;11511;51.514;7.080;2024-03-17T09:00:16;101669.06;;;13.01;100.00
22688;BME280;11511;51.514;7.080;2024-03-17T09:02:42;101677.13;;;14.08;100.00
22688;BME280;11511;51.514;7.080;2024-03-17T09:05:07;101668.03;;;14.41;100.00
22688;BME280;11511;51.514;7.080;2024-03-17T09:07:32;101666.16;;;15.15;100.00
22688;BME280;11511;51.514;7.080;2024-03-17T09:09:58;101664.38;;;16.03;100.00
22688;BME280;11511;51.514;7.080;2024-03-17T09:12:24;101666.78;;;16.09;100.00
22688;BME280;11511;51.514;7.080;2024-03-17T09:14:50;101660.09;;;16.99;100.00
22688;BME280;11511;51.514;7.080;2024-03-17T09:17:15;101662.81;;;15.77;100.00
22688;BME280;11511;51.514;7.080;2024-03-17T09:19:40;101656.56;;;15.78;100.00
22688;BME280;11511;51.514;7.080;2024-03-17T09:22:06;101659.09;;;16.82;100.00
22688;BME280;11511;51.514;7.080;2024-03-17T09:24:31;101662.97;;;15.94;100.00
22688;BME280;11511;51.514;7.080;2024-03-17T09:26:57;101657.75;;;16.13;100.00
22688;BME280;11511;51.514;7.080;2024-03-17T09:29:22;101651.03;;;16.04;100.00
22688;BME280;11511;51.514;7.080;2024-03-17T09:31:48;101647.91;;;15.06;100.00
22688;BME280;11511;51.514;7.080;2024-03-17T09:34:14;101641.97;;;15.44;100.00
22688;BME280;11511;51.514;7.080;2024-03-17T09:36:40;101638.22;;;15.28;100.00
22688;BME280;11511;51.514;7.080;2024-03-17T09:39:05;101633.94;;;14.79;100.00
22688;BME280;11511;51.514;7.080;2024-03-17T09:41:31;101641.38;;;14.46;100.00
22688;BME280;11511;51.514;7.080;2024-03-17T09:43:57;101636.22;;;15.56;100.00
22688;BME280;11511;51.514;7.080;2024-03-17T09:46:23;101635.94;;;16.66;100.00
22688;BME280;11511;51.514;7.080;2024-03-17T09:48:48;101641.53;;;16.97;100.00
22688;BME280;11511;51.514;7.080;2024-03-17T09:51:20;101644.94;;;17.19;100.00
22688;BME280;11511;51.514;7.080;2024-03-17T09:53:46;101644.63;;;18.15;98.55
22688;BME280;11511;51.514;7.080;2024-03-17T09:56:12;101631.03;;;18.87;94.12
22688;BME280;11511;51.514;7.080;2024-03-17T09:58:41;101646.19;;;17.84;95.74
22688;BME280;11511;51.514;7.080;2024-03-17T10:01:07;101640.94;;;17.66;94.11
22688;BME280;11511;51.514;7.080;2024-03-17T10:03:48;101641.03;;;17.26;100.00
22688;BME280;11511;51.514;7.080;2024-03-17T10:06:17;101644.94;;;17.74;96.91
22688;BME280;11511;51.514;7.080;2024-03-17T10:08:50;101640.31;;;16.67;100.00
22688;BME280;11511;51.514;7.080;2024-03-17T10:11:16;101639.31;;;15.88;100.00
22688;BME280;11511;51.514;7.080;2024-03-17T10:13:42;101648.56;;;15.12;100.00
22688;BME280;11511;51.514;7.080;2024-03-17T10:16:24;101652.84;;;14.93;100.00
22688;BME280;11511;51.514;7.080;2024-03-17T10:18:50;101651.25;;;14.41;100.00
22688;BME280;11511;51.514;7.080;2024-03-17T10:21:24;101652.09;;;14.66;100.00
22688;BME280;11511;51.514;7.080;2024-03-17T10:23:51;101645.25;;;13.84;100.00
22688;BME280;11511;51.514;7.080;2024-03-17T10:26:29;101646.28;;;14.05;100.00
22688;BME280;11511;51.514;7.080;2024-03-17T10:28:54;101652.03;;;14.18;100.00
22688;BME280;11511;51.514;7.080;2024-03-17T10:31:20;101646.38;;;14.53;100.00
22688;BME280;11511;51.514;7.080;2024-03-17T10:33:46;101650.25;;;14.92;100.00
22688;BME280;11511;51.514;7.080;2024-03-17T10:36:25;101645.34;;;14.57;100.00
22688;BME280;11511;51.514;7.080;2024-03-17T10:38:51;101657.22;;;14.47;100.00
22688;BME280;11511;51.514;7.080;2024-03-17T10:41:18;101651.53;;;16.53;100.00
22688;BME280;11511;51.514;7.080;2024-03-17T10:43:44;101651.06;;;17.57;100.00
22688;BME280;11511;51.514;7.080;2024-03-17T10:46:10;101653.94;;;18.06;100.00
22688;BME280;11511;51.514;7.080;2024-03-17T10:48:37;101653.56;;;18.31;99.72
22688;BME280;11511;51.514;7.080;2024-03-17T10:51:03;101654.75;;;18.76;94.10
22688;BME280;11511;51.514;7.080;2024-03-17T10:53:28;101654.19;;;17.30;96.71
22688;BME280;11511;51.514;7.080;2024-03-17T10:56:05;101651.78;;;17.97;95.86
22688;BME280;11511;51.514;7.080;2024-03-17T10:58:43;101645.31;;;18.36;95.45
22688;BME280;11511;51.514;7.080;2024-03-17T11:01:13;101652.25;;;19.37;92.50
22688;BME280;11511;51.514;7.080;2024-03-17T11:03:39;101650.56;;;18.87;92.32
22688;BME280;11511;51.514;7.080;2024-03-17T11:06:05;101647.84;;;19.05;88.43
22688;BME280;11511;51.514;7.080;2024-03-17T11:08:33;101662.47;;;17.78;92.88
22688;BME280;11511;51.514;7.080;2024-03-17T11:10:59;101651.84;;;18.13;92.33
22688;BME280;11511;51.514;7.080;2024-03-17T11:13:26;101647.75;;;17.52;98.54
22688;BME280;11511;51.514;7.080;2024-03-17T11:15:52;101647.47;;;18.29;95.78
22688;BME280;11511;51.514;7.080;2024-03-17T11:23:33;101652.34;;;17.13;98.06
22688;BME280;11511;51.514;7.080;2024-03-17T11:25:59;101649.84;;;16.32;100.00
22688;BME280;11511;51.514;7.080;2024-03-17T11:28:44;101648.25;;;17.97;94.33
22688;BME280;11511;51.514;7.080;2024-03-17T11:33:54;101642.66;;;17.67;98.56
22688;BME280;11511;51.514;7.080;2024-03-17T11:46:44;101625.84;;;16.72;96.10
22688;BME280;11511;51.514;7.080;2024-03-17T11:49:55;101622.34;;;16.12;100.00
22688;BME280;11511;51.514;7.080;2024-03-17T11:51:59;101614.59;;;16.86;98.24
22688;BME280;11511;51.514;7.080;2024-03-17T11:54:25;101619.94;;;15.64;100.00
22688;BME280;11511;51.514;7.080;2024-03-17T11:56:52;101625.41;;;17.38;99.71
22688;BME280;11511;51.514;7.080;2024-03-17T11:59:18;101620.03;;;17.20;96.21
22688;BME280;11511;51.514;7.080;2024-03-17T12:01:51;101614.28;;;17.83;98.60
22688;BME280;11511;51.514;7.080;2024-03-17T12:04:17;101620.56;;;18.16;95.70
22688;BME280;11511;51.514;7.080;2024-03-17T12:06:46;101606.75;;;19.07;90.56
22688;BME280;11511;51.514;7.080;2024-03-17T12:11:46;101613.69;;;20.31;81.69
22688;BME280;11511;51.514;7.080;2024-03-17T12:14:18;101614.03;;;19.67;83.63
22688;BME280;11511;51.514;7.080;2024-03-17T12:16:50;101612.59;;;18.82;86.67
22688;BME280;11511;51.514;7.080;2024-03-17T12:19:17;101605.44;;;18.99;90.10
22688;BME280;11511;51.514;7.080;2024-03-17T12:21:46;101608.22;;;18.31;91.70
22688;BME280;11511;51.514;7.080;2024-03-17T12:24:15;101594.41;;;19.82;87.32
22688;BME280;11511;51.514;7.080;2024-03-17T12:26:42;101592.50;;;19.84;88.52
22688;BME280;11511;51.514;7.080;2024-03-17T12:29:24;101590.63;;;19.24;85.37
22688;BME280;11511;51.514;7.080;2024-03-17T12:31:51;101586.63;;;19.63;84.44
22688;BME280;11511;51.514;7.080;2024-03-17T12:34:17;101581.69;;;19.10;82.78
22688;BME280;11511;51.514;7.080;2024-03-17T12:36:43;101578.91;;;18.96;83.11
22688;BME280;11511;51.514;7.080;2024-03-17T12:39:24;101574.94;;;19.18;82.37
22688;BME280;11511;51.514;7.080;2024-03-17T12:42:04;101571.88;;;19.10;85.17
22688;BME280;11511;51.514;7.080;2024-03-17T12:44:30;101565.91;;;19.05;86.16
22688;BME280;11511;51.514;7.080;2024-03-17T12:46:56;101572.50;;;17.83;81.98
22688;BME280;11511;51.514;7.080;2024-03-17T12:49:22;101567.56;;;18.43;83.69
22688;BME280;11511;51.514;7.080;2024-03-17T12:51:50;101557.72;;;18.28;80.83
22688;BME280;11511;51.514;7.080;2024-03-17T12:54:15;101554.56;;;18.04;81.52
22688;BME280;11511;51.514;7.080;2024-03-17T12:56:42;101551.28;;;18.32;78.93
22688;BME280;11511;51.514;7.080;2024-03-17T12:59:37;101545.41;;;18.90;78.95
22688;BME280;11511;51.514;7.080;2024-03-17T13:02:41;101542.50;;;19.10;82.66
22688;BME280;11511;51.514;7.080;2024-03-17T13:05:17;101543.91;;;19.32;80.98
22688;BME280;11511;51.514;7.080;2024-03-17T13:07:43;101532.09;;;19.36;83.74
22688;BME280;11511;51.514;7.080;2024-03-17T13:10:11;101537.50;;;18.07;88.31